Time;durP1;ratioP1;P1;durP2;ratioP2;P2;SDS_P1;SDS_P2;PMS_P1;PMS_P2;Temp;Humidity;BMP_temperature;BMP_pressure;BME280_temperature;BME280_humidity;BME280_pressure;Samples;Min_cycle;Max_cycle;Signal;HPM_P1;HPM_P2
2022/06/05 00:01:34;;;;;;;23.80;11.27;;;;;;;;;;5015396;28;20038;-75
2022/06/05 00:04:08;;;;;;;17.55;10.13;;;;;;;;;;5014614;28;20048;-74
2022/06/05 00:06:34;;;;;;;17.05;10.10;;;;;;;;;;5012223;28;20095;-75
2022/06/05 00:09:03;;;;;;;17.42;10.90;;;;;;;;;;5014139;28;20116;-74
2022/06/05 00:11:35;;;;;;;18.70;10.82;;;;;;;;;;5015138;28;20057;-77
2022/06/05 00:14:01;;;;;;;22.35;10.40;;;;;;;;;;5014359;28;20124;-75
2022/06/05 00:16:29;;;;;;;16.95;10.07;;;;;;;;;;5014726;28;20041;-76
2022/06/05 00:18:55;;;;;;;17.17;10.30;;;;;;;;;;5014440;28;20143;-74
2022/06/05 00:21:21;;;;;;;19.33;10.73;;;;;;;;;;5014835;28;20052;-77
2022/06/05 00:23:50;;;;;;;15.82;10.38;;;;;;;;;;5010927;28;20072;-74
2022/06/05 00:26:29;;;;;;;17.30;10.15;;;;;;;;;;5038097;28;20061;-74
2022/06/05 00:29:01;;;;;;;19.58;9.98;;;;;;;;;;5014827;28;20400;-76
2022/06/05 00:31:30;;;;;;;16.63;9.93;;;;;;;;;;5025802;28;20049;-76
2022/06/05 00:33:57;;;;;;;20.00;10.70;;;;;;;;;;5037286;28;20048;-75
2022/06/05 00:36:26;;;;;;;17.83;10.68;;;;;;;;;;5013501;28;20051;-76
2022/06/05 00:38:59;;;;;;;15.70;9.85;;;;;;;;;;5023413;28;20038;-75
2022/06/05 00:41:43;;;;;;;20.30;9.98;;;;;;;;;;5045510;28;20116;-75
2022/06/05 00:44:12;;;;;;;16.77;9.95;;;;;;;;;;5014335;28;20041;-75
2022/06/05 00:46:38;;;;;;;15.73;9.93;;;;;;;;;;5030627;28;20033;-77
2022/06/05 00:49:05;;;;;;;17.58;10.35;;;;;;;;;;5011761;28;20124;-78
2022/06/05 00:51:31;;;;;;;18.60;10.10;;;;;;;;;;5014267;28;20041;-76
2022/06/05 00:53:57;;;;;;;19.63;9.77;;;;;;;;;;5014408;28;20455;-77
2022/06/05 00:56:23;;;;;;;18.73;10.15;;;;;;;;;;5031502;28;20061;-76
2022/06/05 00:58:50;;;;;;;17.08;9.85;;;;;;;;;;5014444;28;20556;-76
2022/06/05 01:01:16;;;;;;;17.77;9.77;;;;;;;;;;5031622;28;20044;-76
2022/06/05 01:03:42;;;;;;;15.70;9.55;;;;;;;;;;5014316;28;20033;-75
2022/06/05 01:06:08;;;;;;;16.15;9.70;;;;;;;;;;5013801;28;20037;-77
2022/06/05 01:08:34;;;;;;;19.08;8.90;;;;;;;;;;5011189;28;20041;-76
2022/06/05 01:11:03;;;;;;;16.73;10.35;;;;;;;;;;5023562;28;20475;-76
2022/06/05 01:13:37;;;;;;;18.45;9.85;;;;;;;;;;5013997;28;20045;-76
2022/06/05 01:16:15;;;;;;;18.67;9.77;;;;;;;;;;5030136;28;20120;-76
2022/06/05 01:18:42;;;;;;;20.40;10.35;;;;;;;;;;5013427;28;20107;-74
2022/06/05 01:21:08;;;;;;;16.70;10.13;;;;;;;;;;5014098;28;20056;-75
2022/06/05 01:23:49;;;;;;;17.25;9.45;;;;;;;;;;5013611;28;20030;-75
2022/06/05 01:26:21;;;;;;;21.58;9.75;;;;;;;;;;5013343;28;20033;-77
2022/06/05 01:28:52;;;;;;;20.55;9.77;;;;;;;;;;5013336;28;20049;-74
2022/06/05 01:31:21;;;;;;;19.23;10.65;;;;;;;;;;5022981;28;20044;-78
2022/06/05 01:33:52;;;;;;;20.00;10.13;;;;;;;;;;5013186;28;20060;-75
2022/06/05 01:36:30;;;;;;;18.63;10.13;;;;;;;;;;5011250;28;20045;-75
2022/06/05 01:39:02;;;;;;;18.15;9.43;;;;;;;;;;5012528;28;20246;-74
2022/06/05 01:41:33;;;;;;;19.45;9.48;;;;;;;;;;5013168;28;20041;-74
2022/06/05 01:44:00;;;;;;;20.23;10.00;;;;;;;;;;5013146;28;20040;-75
2022/06/05 01:46:33;;;;;;;17.15;9.18;;;;;;;;;;5012589;28;20044;-75
2022/06/05 01:49:09;;;;;;;19.80;9.48;;;;;;;;;;5011102;28;20049;-76
2022/06/05 01:51:46;;;;;;;16.17;9.23;;;;;;;;;;5030947;28;20105;-76
2022/06/05 01:54:15;;;;;;;21.50;9.77;;;;;;;;;;4995231;28;20038;-74
2022/06/05 01:56:44;;;;;;;20.75;9.55;;;;;;;;;;5013135;28;20107;-75
2022/06/05 01:59:16;;;;;;;16.63;9.77;;;;;;;;;;4996691;28;20041;-74
2022/06/05 02:01:44;;;;;;;17.70;9.80;;;;;;;;;;5029046;28;20042;-74
2022/06/05 02:04:16;;;;;;;20.13;10.38;;;;;;;;;;5007884;28;20129;-75
2022/06/05 02:06:45;;;;;;;23.38;10.20;;;;;;;;;;5006142;28;20413;-77
2022/06/05 02:09:15;;;;;;;18.52;9.93;;;;;;;;;;5027202;28;20041;-74
2022/06/05 02:11:42;;;;;;;20.23;9.63;;;;;;;;;;5012734;28;20041;-75
2022/06/05 02:14:09;;;;;;;19.30;9.38;;;;;;;;;;5028853;28;20045;-74
2022/06/05 02:16:36;;;;;;;17.38;10.27;;;;;;;;;;5012405;28;20045;-74
2022/06/05 02:19:08;;;;;;;14.68;9.02;;;;;;;;;;5011674;28;20053;-75
2022/06/05 02:21:37;;;;;;;20.48;10.43;;;;;;;;;;5013145;28;20030;-75
2022/06/05 02:24:03;;;;;;;20.70;10.38;;;;;;;;;;5012512;28;20500;-85
2022/06/05 02:26:30;;;;;;;17.65;9.90;;;;;;;;;;5037965;28;20041;-86
2022/06/05 02:28:56;;;;;;;17.75;9.45;;;;;;;;;;5015621;28;20049;-84
2022/06/05 02:31:27;;;;;;;18.15;9.93;;;;;;;;;;4997980;28;20500;-86
2022/06/05 02:34:16;;;;;;;18.25;9.30;;;;;;;;;;5011352;28;20041;-83
2022/06/05 02:36:43;;;;;;;20.90;10.48;;;;;;;;;;5002750;28;20400;-84
2022/06/05 02:39:18;;;;;;;19.63;10.05;;;;;;;;;;5029793;28;20500;-85
2022/06/05 02:42:02;;;;;;;16.53;10.07;;;;;;;;;;5028136;28;20473;-84
2022/06/05 02:44:34;;;;;;;17.90;10.20;;;;;;;;;;5011651;28;20083;-84
2022/06/05 02:47:00;;;;;;;21.60;10.77;;;;;;;;;;5013640;28;20049;-84
2022/06/05 02:49:36;;;;;;;18.60;9.50;;;;;;;;;;5013604;28;20041;-81
2022/06/05 02:52:04;;;;;;;18.70;9.52;;;;;;;;;;5010209;28;20037;-84
2022/06/05 02:54:30;;;;;;;18.95;10.93;;;;;;;;;;4997998;28;20148;-84
2022/06/05 02:56:56;;;;;;;25.92;10.93;;;;;;;;;;5009005;28;20056;-86
2022/06/05 02:59:26;;;;;;;20.45;9.93;;;;;;;;;;5011144;28;20048;-85
2022/06/05 03:04:37;;;;;;;19.73;10.35;;;;;;;;;;5013312;28;20041;-83
2022/06/05 03:07:03;;;;;;;18.92;10.43;;;;;;;;;;5012179;28;20369;-85
2022/06/05 03:09:29;;;;;;;18.48;10.02;;;;;;;;;;5012479;28;20045;-85
2022/06/05 03:11:55;;;;;;;21.38;10.55;;;;;;;;;;5013293;28;20451;-86
2022/06/05 03:14:21;;;;;;;20.80;10.15;;;;;;;;;;5041718;28;20398;-84
2022/06/05 03:16:47;;;;;;;18.25;10.20;;;;;;;;;;4994254;28;20048;-86
2022/06/05 03:19:14;;;;;;;18.88;10.27;;;;;;;;;;4997078;28;20132;-85
2022/06/05 03:21:41;;;;;;;20.38;10.55;;;;;;;;;;5015736;28;20079;-85
2022/06/05 03:24:07;;;;;;;18.58;9.77;;;;;;;;;;5026599;28;20045;-85
2022/06/05 03:26:33;;;;;;;15.85;9.05;;;;;;;;;;5030248;28;20041;-85
2022/06/05 03:29:00;;;;;;;22.05;10.32;;;;;;;;;;5013022;28;20128;-85
2022/06/05 03:31:26;;;;;;;20.00;10.48;;;;;;;;;;5036817;28;20056;-86
2022/06/05 03:33:52;;;;;;;23.15;11.20;;;;;;;;;;5016970;28;20506;-81
2022/06/05 03:36:21;;;;;;;20.67;10.23;;;;;;;;;;5001304;28;20039;-86
2022/06/05 03:38:47;;;;;;;19.65;10.40;;;;;;;;;;5014809;28;20065;-83
2022/06/05 03:41:17;;;;;;;20.27;10.73;;;;;;;;;;5017747;28;20604;-84
2022/06/05 03:43:43;;;;;;;18.65;10.38;;;;;;;;;;5014602;28;20042;-83
2022/06/05 03:46:11;;;;;;;19.17;10.68;;;;;;;;;;5017179;28;20037;-84
2022/06/05 03:48:38;;;;;;;19.80;10.45;;;;;;;;;;5017392;28;20084;-79
2022/06/05 03:51:08;;;;;;;20.30;10.40;;;;;;;;;;5016224;28;20037;-86
2022/06/05 03:53:35;;;;;;;18.60;10.18;;;;;;;;;;5017751;28;20037;-80
2022/06/05 03:56:07;;;;;;;20.00;10.90;;;;;;;;;;5014660;28;20045;-86
2022/06/05 03:58:33;;;;;;;21.33;11.45;;;;;;;;;;5015947;28;20037;-80
2022/06/05 04:00:59;;;;;;;19.60;10.02;;;;;;;;;;5015659;28;20377;-84
2022/06/05 04:03:25;;;;;;;22.83;10.93;;;;;;;;;;5035281;28;20037;-80
2022/06/05 04:05:51;;;;;;;19.75;10.60;;;;;;;;;;5013703;28;20087;-84
2022/06/05 04:08:17;;;;;;;17.90;10.35;;;;;;;;;;5025083;28;20037;-81
2022/06/05 04:10:43;;;;;;;21.52;10.50;;;;;;;;;;5017838;28;20480;-84
2022/06/05 04:13:10;;;;;;;17.55;10.48;;;;;;;;;;5012007;28;20539;-84
2022/06/05 04:15:39;;;;;;;22.02;10.85;;;;;;;;;;5016340;28;20045;-82
2022/06/05 04:18:06;;;;;;;19.15;10.32;;;;;;;;;;5016783;28;20080;-84
2022/06/05 04:20:32;;;;;;;22.67;10.90;;;;;;;;;;4995140;28;20046;-81
2022/06/05 04:22:59;;;;;;;22.60;10.57;;;;;;;;;;4999951;28;20403;-85
2022/06/05 04:25:25;;;;;;;21.38;10.90;;;;;;;;;;5003086;28;20034;-85
2022/06/05 04:27:52;;;;;;;18.80;10.45;;;;;;;;;;5004240;28;20068;-83
2022/06/05 04:30:18;;;;;;;21.83;10.98;;;;;;;;;;5003846;28;20053;-87
2022/06/05 04:32:44;;;;;;;17.70;9.88;;;;;;;;;;5004454;28;20050;-87
2022/06/05 04:35:11;;;;;;;20.38;10.18;;;;;;;;;;4981446;28;20056;-87
2022/06/05 04:37:37;;;;;;;20.98;10.65;;;;;;;;;;5000431;28;20041;-87
2022/06/05 04:40:03;;;;;;;21.10;10.48;;;;;;;;;;5018944;28;20503;-82
2022/06/05 04:42:30;;;;;;;18.55;10.65;;;;;;;;;;5005179;28;20037;-80
2022/06/05 04:44:56;;;;;;;18.23;10.23;;;;;;;;;;5000793;28;20037;-82
2022/06/05 04:47:22;;;;;;;18.35;10.73;;;;;;;;;;5002763;28;20065;-79
2022/06/05 04:49:49;;;;;;;18.27;10.32;;;;;;;;;;5004372;28;20037;-83
2022/06/05 04:52:15;;;;;;;16.90;9.93;;;;;;;;;;5009904;28;20049;-88
2022/06/05 04:54:41;;;;;;;18.70;10.55;;;;;;;;;;5006503;28;20038;-87
2022/06/05 04:57:07;;;;;;;16.38;9.93;;;;;;;;;;5009115;28;20033;-85
2022/06/05 04:59:35;;;;;;;15.35;10.15;;;;;;;;;;5005600;28;20041;-85
2022/06/05 05:02:01;;;;;;;20.35;10.07;;;;;;;;;;5024666;28;20037;-84
2022/06/05 05:04:27;;;;;;;18.30;10.45;;;;;;;;;;5021795;28;20384;-88
2022/06/05 05:06:53;;;;;;;19.23;9.77;;;;;;;;;;5012528;28;20126;-80
2022/06/05 05:09:19;;;;;;;17.17;9.90;;;;;;;;;;5005682;28;20041;-80
2022/06/05 05:11:45;;;;;;;17.92;10.32;;;;;;;;;;5007055;28;20034;-87
2022/06/05 05:14:11;;;;;;;19.58;9.85;;;;;;;;;;5013641;28;20092;-77
2022/06/05 05:16:37;;;;;;;20.42;10.52;;;;;;;;;;4998894;28;20042;-80
2022/06/05 05:19:04;;;;;;;15.65;9.40;;;;;;;;;;4995624;28;20054;-77
2022/06/05 05:21:30;;;;;;;17.48;10.48;;;;;;;;;;4994638;28;20113;-74
2022/06/05 05:23:56;;;;;;;18.35;10.07;;;;;;;;;;4994009;28;20493;-74
2022/06/05 05:26:27;;;;;;;15.75;9.60;;;;;;;;;;4990826;28;20046;-77
2022/06/05 05:28:53;;;;;;;20.17;10.85;;;;;;;;;;4988348;28;20440;-74
2022/06/05 05:31:21;;;;;;;16.30;9.82;;;;;;;;;;4990245;28;20494;-74
2022/06/05 05:33:49;;;;;;;16.70;9.40;;;;;;;;;;4993072;28;20052;-76
2022/06/05 05:36:17;;;;;;;16.60;9.50;;;;;;;;;;4995632;28;20371;-76
2022/06/05 05:42:04;;;;;;;16.85;9.88;;;;;;;;;;4991294;28;20072;-74
2022/06/05 05:44:15;;;;;;;15.90;9.63;;;;;;;;;;5008425;28;20392;-75
2022/06/05 05:46:42;;;;;;;15.43;8.75;;;;;;;;;;4994264;28;20041;-77
2022/06/05 05:49:09;;;;;;;14.55;9.02;;;;;;;;;;4993953;28;20045;-76
2022/06/05 05:51:35;;;;;;;13.40;9.38;;;;;;;;;;4993331;28;20038;-76
2022/06/05 05:54:01;;;;;;;13.40;8.93;;;;;;;;;;5002591;28;20041;-77
2022/06/05 05:56:27;;;;;;;13.15;8.77;;;;;;;;;;4995891;28;20050;-75
2022/06/05 05:58:53;;;;;;;16.63;9.25;;;;;;;;;;4994059;28;20503;-77
2022/06/05 06:01:20;;;;;;;13.18;8.65;;;;;;;;;;4995383;28;20042;-78
2022/06/05 06:03:46;;;;;;;14.13;8.57;;;;;;;;;;4993489;28;20129;-77
2022/06/05 06:06:12;;;;;;;12.73;8.45;;;;;;;;;;4993173;28;20053;-76
2022/06/05 06:08:38;;;;;;;13.57;8.93;;;;;;;;;;4993633;28;20046;-76
2022/06/05 06:11:04;;;;;;;13.15;8.13;;;;;;;;;;4993665;28;20172;-77
2022/06/05 06:13:30;;;;;;;13.07;8.77;;;;;;;;;;4994062;28;20392;-78
2022/06/05 06:15:56;;;;;;;12.40;8.95;;;;;;;;;;5007888;28;20046;-79
2022/06/05 06:18:23;;;;;;;17.05;9.07;;;;;;;;;;5012260;28;20100;-78
2022/06/05 06:20:49;;;;;;;14.02;8.55;;;;;;;;;;5031657;28;20041;-78
2022/06/05 06:23:15;;;;;;;14.15;8.68;;;;;;;;;;5013195;28;20112;-76
2022/06/05 06:25:42;;;;;;;12.63;8.48;;;;;;;;;;4997803;28;20053;-76
2022/06/05 06:28:09;;;;;;;13.32;8.68;;;;;;;;;;5013804;28;20065;-77
2022/06/05 06:30:35;;;;;;;12.77;8.20;;;;;;;;;;5011135;28;20070;-77
2022/06/05 06:33:01;;;;;;;15.13;8.40;;;;;;;;;;5014845;28;20041;-77
2022/06/05 06:35:28;;;;;;;13.07;7.97;;;;;;;;;;5013735;28;20505;-78
2022/06/05 06:37:54;;;;;;;15.18;8.80;;;;;;;;;;5012671;28;20116;-77
2022/06/05 06:40:20;;;;;;;13.20;8.48;;;;;;;;;;4996547;28;20037;-77
2022/06/05 06:42:46;;;;;;;13.65;8.57;;;;;;;;;;5015891;28;20048;-75
2022/06/05 06:45:13;;;;;;;13.10;8.60;;;;;;;;;;5015616;28;20072;-76
2022/06/05 06:47:39;;;;;;;11.85;8.30;;;;;;;;;;5013971;28;20555;-75
2022/06/05 06:50:06;;;;;;;12.15;7.95;;;;;;;;;;5015084;28;20041;-83
2022/06/05 06:52:32;;;;;;;11.23;7.57;;;;;;;;;;5017397;28;20516;-83
2022/06/05 06:54:58;;;;;;;11.52;7.80;;;;;;;;;;5031239;28;20041;-87
2022/06/05 06:57:24;;;;;;;11.88;8.18;;;;;;;;;;5034572;28;20048;-84
2022/06/05 06:59:50;;;;;;;11.02;7.53;;;;;;;;;;5013015;28;20041;-86
2022/06/05 07:02:17;;;;;;;11.82;7.95;;;;;;;;;;5023554;28;20037;-79
2022/06/05 07:04:43;;;;;;;11.70;7.68;;;;;;;;;;5013737;28;20047;-76
2022/06/05 07:07:09;;;;;;;11.23;8.05;;;;;;;;;;5019616;28;20540;-85
2022/06/05 07:09:35;;;;;;;12.05;7.60;;;;;;;;;;5023011;28;20080;-85
2022/06/05 07:12:01;;;;;;;11.32;7.90;;;;;;;;;;5017405;28;20037;-80
2022/06/05 07:14:27;;;;;;;11.43;7.80;;;;;;;;;;5029281;28;20535;-82
2022/06/05 07:16:55;;;;;;;11.57;7.32;;;;;;;;;;5021190;28;20048;-81
2022/06/05 07:19:22;;;;;;;12.23;7.47;;;;;;;;;;5046523;28;20049;-85
2022/06/05 07:21:48;;;;;;;11.95;7.57;;;;;;;;;;5019200;28;20041;-82
2022/06/05 07:24:16;;;;;;;9.45;7.60;;;;;;;;;;5020505;28;20069;-79
2022/06/05 07:26:42;;;;;;;10.27;7.15;;;;;;;;;;5017882;28;20508;-81
2022/06/05 07:29:08;;;;;;;11.82;7.60;;;;;;;;;;5019241;28;20427;-88
2022/06/05 07:31:34;;;;;;;10.15;7.18;;;;;;;;;;5018317;28;20037;-87
2022/06/05 07:34:02;;;;;;;10.25;7.50;;;;;;;;;;5019470;28;20115;-86
2022/06/05 07:36:30;;;;;;;11.13;7.07;;;;;;;;;;5028040;28;20497;-86
2022/06/05 07:38:57;;;;;;;10.57;7.60;;;;;;;;;;5016817;28;20084;-82
2022/06/05 07:41:26;;;;;;;10.82;7.05;;;;;;;;;;5026712;28;20034;-85
2022/06/05 07:43:53;;;;;;;11.50;7.22;;;;;;;;;;5019275;28;20072;-86
2022/06/05 07:46:19;;;;;;;9.38;6.60;;;;;;;;;;5019981;28;20120;-83
2022/06/05 07:48:45;;;;;;;14.60;7.63;;;;;;;;;;5016253;28;20045;-83
2022/06/05 07:54:31;;;;;;;9.25;6.88;;;;;;;;;;5044599;28;20041;-84
2022/06/05 07:56:51;;;;;;;11.48;7.20;;;;;;;;;;5016664;28;20049;-87
2022/06/05 07:59:17;;;;;;;9.68;6.88;;;;;;;;;;5021353;28;20040;-82
2022/06/05 08:01:44;;;;;;;14.13;7.13;;;;;;;;;;5034141;28;20510;-82
2022/06/05 08:04:11;;;;;;;9.60;7.13;;;;;;;;;;5052804;28;20041;-88
2022/06/05 08:06:37;;;;;;;11.75;7.70;;;;;;;;;;5020987;28;20180;-85
2022/06/05 08:09:04;;;;;;;11.23;6.95;;;;;;;;;;5022848;28;20135;-87
2022/06/05 08:11:30;;;;;;;10.82;6.97;;;;;;;;;;5022059;28;20064;-82
2022/06/05 08:13:56;;;;;;;10.70;7.30;;;;;;;;;;5005297;28;20107;-80
2022/06/05 08:16:22;;;;;;;10.48;7.55;;;;;;;;;;5018866;28;20049;-87
2022/06/05 08:18:51;;;;;;;10.80;7.18;;;;;;;;;;5017071;28;20456;-84
2022/06/05 08:21:18;;;;;;;10.13;7.30;;;;;;;;;;5002053;28;20132;-81
2022/06/05 08:23:44;;;;;;;8.60;6.70;;;;;;;;;;5021624;28;20041;-88
2022/06/05 08:26:10;;;;;;;9.73;7.07;;;;;;;;;;5018967;28;20049;-83
2022/06/05 08:28:37;;;;;;;10.63;7.10;;;;;;;;;;5016399;28;20041;-80
2022/06/05 08:31:03;;;;;;;9.77;7.00;;;;;;;;;;5017843;28;20152;-85
2022/06/05 08:33:29;;;;;;;10.13;7.30;;;;;;;;;;5016215;28;20040;-83
2022/06/05 08:35:55;;;;;;;9.98;6.88;;;;;;;;;;4999864;28;20077;-88
2022/06/05 08:41:28;;;;;;;8.90;6.80;;;;;;;;;;5013283;28;20045;-86
2022/06/05 08:44:09;;;;;;;10.38;6.85;;;;;;;;;;5014821;28;20444;-84
2022/06/05 08:46:44;;;;;;;10.45;6.32;;;;;;;;;;5015807;28;20033;-83
2022/06/05 08:49:12;;;;;;;9.73;6.50;;;;;;;;;;5017371;28;20447;-85
2022/06/05 08:51:41;;;;;;;8.85;6.43;;;;;;;;;;5015621;28;20045;-87
2022/06/05 08:54:13;;;;;;;9.00;6.38;;;;;;;;;;5015273;28;20037;-87
2022/06/05 08:56:41;;;;;;;11.70;6.82;;;;;;;;;;5026977;28;20053;-85
2022/06/05 08:59:13;;;;;;;9.52;6.55;;;;;;;;;;5015951;28;20045;-86
2022/06/05 09:01:59;;;;;;;8.52;6.82;;;;;;;;;;5015802;28;20039;-77
2022/06/05 09:04:25;;;;;;;;;;;;;;;;;;5014224;28;20045;-79
2022/06/05 09:06:55;;;;;;;8.45;6.32;;;;;;;;;;5015509;28;20008;-78
2022/06/05 09:09:23;;;;;;;9.45;6.35;;;;;;;;;;5013721;28;20039;-77
2022/06/05 09:11:55;;;;;;;7.90;6.70;;;;;;;;;;5013831;28;20049;-76
2022/06/05 09:14:40;;;;;;;7.55;6.05;;;;;;;;;;5014895;28;20128;-77
2022/06/05 09:17:10;;;;;;;7.85;6.15;;;;;;;;;;5012892;28;20033;-78
2022/06/05 09:19:36;;;;;;;8.65;6.47;;;;;;;;;;5013588;28;20042;-76
2022/06/05 09:22:05;;;;;;;21.02;6.88;;;;;;;;;;5013591;28;20056;-77
2022/06/05 09:24:37;;;;;;;8.18;6.43;;;;;;;;;;5009307;28;20047;-76
2022/06/05 09:27:11;;;;;;;10.15;7.15;;;;;;;;;;4997893;28;20045;-77
2022/06/05 09:29:58;;;;;;;8.30;6.43;;;;;;;;;;5008417;28;20037;-77
2022/06/05 09:32:46;;;;;;;7.82;6.10;;;;;;;;;;5019891;28;20056;-77
2022/06/05 09:35:12;;;;;;;8.73;6.57;;;;;;;;;;5009400;28;20040;-76
2022/06/05 09:37:41;;;;;;;9.23;6.70;;;;;;;;;;5037505;28;20053;-76
2022/06/05 09:40:16;;;;;;;8.88;6.60;;;;;;;;;;4991777;28;20400;-76
2022/06/05 09:42:48;;;;;;;7.57;6.07;;;;;;;;;;5012850;28;20113;-77
2022/06/05 09:45:23;;;;;;;9.05;6.68;;;;;;;;;;5013521;28;20135;-76
2022/06/05 09:47:49;;;;;;;;;;;;;;;;;;5014162;28;20044;-76
2022/06/05 09:50:15;;;;;;;;;;;;;;;;;;5014629;28;20319;-76
2022/06/05 09:52:41;;;;;;;;;;;;;;;;;;5009322;28;20015;-80
2022/06/05 09:55:15;;;;;;;11.50;6.85;;;;;;;;;;5006293;28;19975;-76
2022/06/05 10:00:38;;;;;;;10.55;5.90;;;;;;;;;;5005549;28;20544;-75
2022/06/05 10:03:05;;;;;;;8.00;5.93;;;;;;;;;;5027401;28;20396;-76
2022/06/05 10:05:33;;;;;;;7.32;6.25;;;;;;;;;;5026660;28;20128;-76
2022/06/05 10:08:26;;;;;;;8.25;6.28;;;;;;;;;;5026573;28;20045;-77
2022/06/05 10:10:56;;;;;;;8.85;6.88;;;;;;;;;;5005984;28;20045;-78
2022/06/05 10:13:37;;;;;;;12.52;6.82;;;;;;;;;;5007602;28;20511;-78
2022/06/05 10:16:14;;;;;;;7.50;6.18;;;;;;;;;;5008479;28;20128;-78
2022/06/05 10:18:56;;;;;;;9.95;6.13;;;;;;;;;;4996127;28;20052;-80
2022/06/05 10:21:30;;;;;;;7.30;6.40;;;;;;;;;;5007125;28;20473;-76
2022/06/05 10:24:19;;;;;;;10.32;6.25;;;;;;;;;;4992489;28;20105;-79
2022/06/05 10:26:49;;;;;;;8.55;6.30;;;;;;;;;;5000272;28;20049;-86
2022/06/05 10:29:30;;;;;;;7.60;6.40;;;;;;;;;;5033745;28;20044;-77
2022/06/05 10:32:03;;;;;;;7.55;6.30;;;;;;;;;;5005160;28;20048;-78
2022/06/05 10:34:46;;;;;;;8.85;7.18;;;;;;;;;;5008320;28;20053;-77
2022/06/05 10:37:23;;;;;;;7.70;6.47;;;;;;;;;;5006950;28;20045;-75
2022/06/05 10:39:58;;;;;;;7.57;6.20;;;;;;;;;;4997977;28;20038;-80
2022/06/05 10:42:30;;;;;;;8.27;6.10;;;;;;;;;;4993967;28;20049;-75
2022/06/05 10:44:56;;;;;;;8.77;6.13;;;;;;;;;;5012121;28;20037;-78
2022/06/05 10:47:33;;;;;;;7.68;6.22;;;;;;;;;;5012373;28;20037;-76
2022/06/05 10:50:19;;;;;;;7.88;6.50;;;;;;;;;;5012497;28;20033;-77
2022/06/05 10:52:45;;;;;;;8.05;6.15;;;;;;;;;;5012219;28;20037;-76
2022/06/05 10:55:24;;;;;;;10.57;6.22;;;;;;;;;;5011677;28;20124;-76
2022/06/05 10:58:03;;;;;;;7.53;6.10;;;;;;;;;;5009706;28;20156;-76
2022/06/05 11:00:35;;;;;;;6.63;5.72;;;;;;;;;;5012004;28;20042;-76
2022/06/05 11:03:19;;;;;;;8.80;6.32;;;;;;;;;;5009831;28;20041;-74
2022/06/05 11:05:56;;;;;;;7.00;5.97;;;;;;;;;;5011098;28;20041;-75
2022/06/05 11:08:31;;;;;;;9.18;6.15;;;;;;;;;;5037787;28;20568;-78
2022/06/05 11:13:45;;;;;;;7.78;5.63;;;;;;;;;;5002383;28;20053;-75
2022/06/05 11:16:14;;;;;;;8.40;6.22;;;;;;;;;;5032011;28;20080;-76
2022/06/05 11:19:00;;;;;;;6.55;5.53;;;;;;;;;;5029365;28;20044;-75
2022/06/05 11:21:28;;;;;;;6.90;5.75;;;;;;;;;;5030287;28;20492;-77
2022/06/05 11:23:57;;;;;;;7.53;6.00;;;;;;;;;;5004566;28;20084;-76
2022/06/05 11:26:35;;;;;;;9.75;6.68;;;;;;;;;;5034393;28;20489;-78
2022/06/05 11:29:11;;;;;;;9.43;6.30;;;;;;;;;;5007928;28;20125;-80
2022/06/05 11:31:43;;;;;;;7.28;6.25;;;;;;;;;;5008123;28;20037;-76
2022/06/05 11:34:18;;;;;;;7.35;6.63;;;;;;;;;;5026278;28;20041;-77
2022/06/05 11:36:44;;;;;;;9.68;6.72;;;;;;;;;;5007589;28;20053;-76
2022/06/05 11:39:16;;;;;;;8.57;6.88;;;;;;;;;;5006838;28;20045;-80
2022/06/05 11:41:54;;;;;;;8.63;6.80;;;;;;;;;;5027006;28;20045;-81
2022/06/05 11:44:32;;;;;;;9.23;6.70;;;;;;;;;;5011676;28;20037;-73
2022/06/05 11:47:10;;;;;;;8.13;6.07;;;;;;;;;;5025179;28;20126;-73
2022/06/05 11:50:01;;;;;;;7.72;6.40;;;;;;;;;;5010915;28;20052;-74
2022/06/05 11:52:41;;;;;;;8.13;6.05;;;;;;;;;;5032554;28;20037;-73
2022/06/05 11:55:20;;;;;;;8.82;6.65;;;;;;;;;;5032493;28;20049;-72
2022/06/05 11:57:49;;;;;;;9.65;6.50;;;;;;;;;;5015715;28;20047;-77
2022/06/05 12:00:17;;;;;;;8.90;6.60;;;;;;;;;;5034958;28;20448;-78
2022/06/05 12:02:43;;;;;;;9.75;6.70;;;;;;;;;;5009100;28;20057;-77
2022/06/05 12:05:15;;;;;;;8.15;6.40;;;;;;;;;;5018973;28;20082;-80
2022/06/05 12:07:42;;;;;;;8.48;6.45;;;;;;;;;;5033907;28;20068;-78
2022/06/05 12:10:10;;;;;;;8.02;6.65;;;;;;;;;;5013407;28;20048;-78
2022/06/05 12:12:38;;;;;;;7.90;6.28;;;;;;;;;;5037551;28;20041;-77
2022/06/05 12:15:19;;;;;;;8.07;6.30;;;;;;;;;;5016053;28;20069;-74
2022/06/05 12:17:52;;;;;;;9.73;6.72;;;;;;;;;;5013442;28;20045;-80
2022/06/05 12:20:28;;;;;;;7.90;6.63;;;;;;;;;;5015647;28;20133;-82
2022/06/05 12:23:04;;;;;;;8.15;6.88;;;;;;;;;;5029429;28;20124;-83
2022/06/05 12:25:40;;;;;;;9.68;6.68;;;;;;;;;;5014837;28;20034;-78
2022/06/05 12:28:10;;;;;;;8.77;6.55;;;;;;;;;;5027468;28;20037;-81
2022/06/05 12:30:49;;;;;;;9.32;6.88;;;;;;;;;;5013929;28;20048;-85
2022/06/05 12:33:18;;;;;;;10.65;7.00;;;;;;;;;;5016806;28;20112;-81
2022/06/05 12:35:46;;;;;;;7.70;6.75;;;;;;;;;;5013985;28;20132;-84
2022/06/05 12:38:31;;;;;;;8.63;7.05;;;;;;;;;;5015883;28;20087;-80
2022/06/05 12:41:10;;;;;;;10.03;7.43;;;;;;;;;;5015908;28;20049;-80
2022/06/05 12:43:53;;;;;;;8.40;7.35;;;;;;;;;;4997331;28;20049;-83
2022/06/05 12:46:38;;;;;;;10.77;6.78;;;;;;;;;;5041928;28;20075;-81
2022/06/05 12:49:26;;;;;;;9.25;7.35;;;;;;;;;;5015407;28;20030;-82
2022/06/05 12:52:01;;;;;;;8.98;6.93;;;;;;;;;;5015540;28;20037;-75
2022/06/05 12:54:35;;;;;;;10.40;7.38;;;;;;;;;;5015381;28;20038;-79
2022/06/05 12:57:07;;;;;;;8.95;7.18;;;;;;;;;;5015663;28;20037;-77
2022/06/05 12:59:41;;;;;;;8.15;7.10;;;;;;;;;;5032740;28;20041;-78
2022/06/05 13:02:31;;;;;;;10.60;6.72;;;;;;;;;;5013589;28;20095;-77
2022/06/05 13:05:02;;;;;;;8.48;7.00;;;;;;;;;;4996860;28;20095;-75
2022/06/05 13:07:28;;;;;;;7.97;6.78;;;;;;;;;;5007560;28;20045;-75
2022/06/05 13:09:58;;;;;;;9.45;7.03;;;;;;;;;;5030173;28;21012;-75
2022/06/05 13:12:31;;;;;;;8.70;6.63;;;;;;;;;;5028513;28;20045;-75
2022/06/05 13:15:00;;;;;;;8.45;7.05;;;;;;;;;;5012480;28;20038;-73
2022/06/05 13:17:39;;;;;;;8.15;7.13;;;;;;;;;;5026461;28;20052;-74
2022/06/05 13:20:24;;;;;;;10.23;7.60;;;;;;;;;;5035135;28;20528;-75
2022/06/05 13:22:55;;;;;;;8.77;7.40;;;;;;;;;;5011565;28;20042;-77
2022/06/05 13:25:41;;;;;;;8.25;7.13;;;;;;;;;;5034327;28;20492;-76
2022/06/05 13:28:18;;;;;;;9.68;7.22;;;;;;;;;;4971020;28;20041;-76
2022/06/05 13:30:49;;;;;;;8.73;6.70;;;;;;;;;;5010301;28;20049;-76
2022/06/05 13:33:20;;;;;;;8.30;6.50;;;;;;;;;;5010915;28;20045;-76
2022/06/05 13:35:48;;;;;;;9.43;7.07;;;;;;;;;;5028980;28;20137;-76
2022/06/05 13:38:33;;;;;;;9.30;7.05;;;;;;;;;;5009241;28;20603;-76
2022/06/05 13:41:12;;;;;;;7.80;7.00;;;;;;;;;;5010808;28;20038;-77
2022/06/05 13:43:39;;;;;;;9.70;7.05;;;;;;;;;;5013073;28;20061;-76
2022/06/05 13:46:12;;;;;;;10.23;7.00;;;;;;;;;;5025418;28;20053;-76
2022/06/05 13:48:51;;;;;;;8.65;7.10;;;;;;;;;;5009399;28;20045;-76
2022/06/05 13:51:34;;;;;;;8.60;6.80;;;;;;;;;;5037974;28;20091;-76
2022/06/05 13:54:06;;;;;;;9.45;6.82;;;;;;;;;;5011234;28;20076;-76
2022/06/05 13:56:35;;;;;;;8.50;6.57;;;;;;;;;;5028188;28;20373;-76
2022/06/05 13:59:11;;;;;;;7.72;6.82;;;;;;;;;;5009960;28;20044;-76
2022/06/05 14:01:41;;;;;;;7.50;6.55;;;;;;;;;;5012333;28;20085;-76
2022/06/05 14:04:16;;;;;;;7.90;6.57;;;;;;;;;;5008564;28;20445;-76
2022/06/05 14:06:51;;;;;;;11.57;7.18;;;;;;;;;;4992915;28;20049;-77
2022/06/05 14:09:29;;;;;;;8.73;7.00;;;;;;;;;;5008063;28;20548;-83
2022/06/05 14:11:56;;;;;;;7.53;6.82;;;;;;;;;;5034277;28;20069;-87
2022/06/05 14:14:35;;;;;;;8.05;6.95;;;;;;;;;;5012915;28;20099;-85
2022/06/05 14:17:03;;;;;;;8.57;6.53;;;;;;;;;;5007123;28;20064;-83
2022/06/05 14:19:30;;;;;;;7.97;6.97;;;;;;;;;;5007431;28;20050;-84
2022/06/05 14:22:01;;;;;;;9.80;6.68;;;;;;;;;;5013070;28;20041;-86
2022/06/05 14:24:29;;;;;;;9.60;6.80;;;;;;;;;;5010041;28;20038;-90
2022/06/05 14:26:56;;;;;;;7.28;6.57;;;;;;;;;;5028524;28;20564;-85
2022/06/05 14:29:23;;;;;;;7.90;7.00;;;;;;;;;;5013443;28;20120;-90
2022/06/05 14:32:07;;;;;;;7.35;6.65;;;;;;;;;;5011927;28;20396;-89
2022/06/05 14:34:39;;;;;;;8.18;6.68;;;;;;;;;;5008554;28;20492;-85
2022/06/05 14:37:06;;;;;;;7.95;6.68;;;;;;;;;;5011339;28;20128;-87
2022/06/05 14:39:34;;;;;;;8.05;6.82;;;;;;;;;;5028643;28;20488;-82
2022/06/05 14:42:14;;;;;;;7.32;6.57;;;;;;;;;;5009452;28;20038;-83
2022/06/05 14:44:47;;;;;;;9.98;6.75;;;;;;;;;;5012054;28;20416;-85
2022/06/05 14:47:16;;;;;;;8.52;6.53;;;;;;;;;;5012773;28;20037;-83
2022/06/05 14:49:45;;;;;;;7.20;6.20;;;;;;;;;;5012848;28;20156;-85
2022/06/05 14:52:21;;;;;;;7.00;6.05;;;;;;;;;;5013098;28;20511;-84
2022/06/05 14:57:53;;;;;;;8.63;6.25;;;;;;;;;;5014554;28;20120;-86
2022/06/05 15:00:21;;;;;;;7.03;6.30;;;;;;;;;;5012937;28;20446;-85
2022/06/05 15:03:06;;;;;;;6.60;5.95;;;;;;;;;;5015811;28;20110;-83
2022/06/05 15:05:34;;;;;;;8.32;6.40;;;;;;;;;;5014963;28;20400;-81
2022/06/05 15:08:03;;;;;;;7.22;6.25;;;;;;;;;;4986098;28;20040;-89
2022/06/05 15:10:38;;;;;;;8.40;6.30;;;;;;;;;;5010082;28;20037;-85
2022/06/05 15:13:13;;;;;;;8.52;6.20;;;;;;;;;;5009014;28;20124;-86